sensor_id;sensor_type;location;lat;lon;timestamp;temperature;humidity
27026;DHT22;14565;48.626;8.978;2022-09-27T00:02:13;9.10;99.90
27026;DHT22;14565;48.626;8.978;2022-09-27T00:04:38;9.10;99.90
27026;DHT22;14565;48.626;8.978;2022-09-27T00:07:04;9.00;99.90
27026;DHT22;14565;48.626;8.978;2022-09-27T00:09:30;9.00;99.90
27026;DHT22;14565;48.626;8.978;2022-09-27T00:11:56;9.10;99.90
27026;DHT22;14565;48.626;8.978;2022-09-27T00:14:21;9.00;99.90
27026;DHT22;14565;48.626;8.978;2022-09-27T00:16:47;9.00;99.90
27026;DHT22;14565;48.626;8.978;2022-09-27T00:19:15;9.00;99.90
27026;DHT22;14565;48.626;8.978;2022-09-27T00:21:42;9.00;99.90
27026;DHT22;14565;48.626;8.978;2022-09-27T00:24:12;9.10;99.90
27026;DHT22;14565;48.626;8.978;2022-09-27T00:26:38;9.00;99.90
27026;DHT22;14565;48.626;8.978;2022-09-27T00:29:04;9.00;99.90
27026;DHT22;14565;48.626;8.978;2022-09-27T00:31:30;9.00;99.90
27026;DHT22;14565;48.626;8.978;2022-09-27T00:33:58;9.10;99.90
27026;DHT22;14565;48.626;8.978;2022-09-27T00:36:25;9.10;99.90
27026;DHT22;14565;48.626;8.978;2022-09-27T00:38:52;9.10;99.90
27026;DHT22;14565;48.626;8.978;2022-09-27T00:43:49;9.10;99.90
27026;DHT22;14565;48.626;8.978;2022-09-27T00:49:15;9.00;99.90
27026;DHT22;14565;48.626;8.978;2022-09-27T00:51:45;9.00;99.90
27026;DHT22;14565;48.626;8.978;2022-09-27T00:54:14;8.90;99.90
27026;DHT22;14565;48.626;8.978;2022-09-27T00:56:43;8.90;99.90
27026;DHT22;14565;48.626;8.978;2022-09-27T00:59:34;8.90;99.90
27026;DHT22;14565;48.626;8.978;2022-09-27T01:02:03;9.00;99.90
27026;DHT22;14565;48.626;8.978;2022-09-27T01:04:29;8.90;99.90
27026;DHT22;14565;48.626;8.978;2022-09-27T01:06:55;9.00;99.90
27026;DHT22;14565;48.626;8.978;2022-09-27T01:09:22;9.00;99.90
27026;DHT22;14565;48.626;8.978;2022-09-27T01:23:42;9.20;99.90
27026;DHT22;14565;48.626;8.978;2022-09-27T01:34:43;9.40;99.90
27026;DHT22;14565;48.626;8.978;2022-09-27T01:42:44;9.40;99.90
27026;DHT22;14565;48.626;8.978;2022-09-27T01:45:55;9.40;99.90
27026;DHT22;14565;48.626;8.978;2022-09-27T01:50:50;9.40;99.90
27026;DHT22;14565;48.626;8.978;2022-09-27T01:53:21;9.40;99.90
27026;DHT22;14565;48.626;8.978;2022-09-27T01:55:50;9.40;99.90
27026;DHT22;14565;48.626;8.978;2022-09-27T01:58:28;9.40;99.90
27026;DHT22;14565;48.626;8.978;2022-09-27T02:00:56;9.30;99.90
27026;DHT22;14565;48.626;8.978;2022-09-27T02:03:27;9.30;99.90
27026;DHT22;14565;48.626;8.978;2022-09-27T02:06:00;9.30;99.90
27026;DHT22;14565;48.626;8.978;2022-09-27T02:08:49;9.40;99.90
27026;DHT22;14565;48.626;8.978;2022-09-27T02:11:16;9.40;99.90
27026;DHT22;14565;48.626;8.978;2022-09-27T02:24:41;9.40;99.90
27026;DHT22;14565;48.626;8.978;2022-09-27T02:27:21;9.40;99.90
27026;DHT22;14565;48.626;8.978;2022-09-27T02:30:01;9.40;99.90
27026;DHT22;14565;48.626;8.978;2022-09-27T02:32:28;9.50;99.90
27026;DHT22;14565;48.626;8.978;2022-09-27T02:34:56;9.40;99.90
27026;DHT22;14565;48.626;8.978;2022-09-27T02:37:23;9.40;99.90
27026;DHT22;14565;48.626;8.978;2022-09-27T02:39:49;9.30;99.90
27026;DHT22;14565;48.626;8.978;2022-09-27T02:42:14;9.30;99.90
27026;DHT22;14565;48.626;8.978;2022-09-27T02:44:41;9.30;99.90
27026;DHT22;14565;48.626;8.978;2022-09-27T02:47:30;9.30;99.90
27026;DHT22;14565;48.626;8.978;2022-09-27T03:00:24;9.30;99.90
27026;DHT22;14565;48.626;8.978;2022-09-27T03:03:12;9.20;99.90
27026;DHT22;14565;48.626;8.978;2022-09-27T03:05:45;9.10;99.90
27026;DHT22;14565;48.626;8.978;2022-09-27T03:08:13;9.20;99.90
27026;DHT22;14565;48.626;8.978;2022-09-27T03:10:39;9.20;99.90
27026;DHT22;14565;48.626;8.978;2022-09-27T03:13:05;9.10;99.90
27026;DHT22;14565;48.626;8.978;2022-09-27T03:15:31;9.10;99.90
27026;DHT22;14565;48.626;8.978;2022-09-27T03:17:57;9.00;99.90
27026;DHT22;14565;48.626;8.978;2022-09-27T03:20:22;9.00;99.90
27026;DHT22;14565;48.626;8.978;2022-09-27T03:22:48;9.00;99.90
27026;DHT22;14565;48.626;8.978;2022-09-27T03:25:14;9.00;99.90
27026;DHT22;14565;48.626;8.978;2022-09-27T03:27:39;8.90;99.90
27026;DHT22;14565;48.626;8.978;2022-09-27T03:30:05;8.90;99.90
27026;DHT22;14565;48.626;8.978;2022-09-27T03:32:32;8.90;99.90
27026;DHT22;14565;48.626;8.978;2022-09-27T03:34:58;8.90;99.90
27026;DHT22;14565;48.626;8.978;2022-09-27T03:37:24;9.00;99.90
27026;DHT22;14565;48.626;8.978;2022-09-27T03:39:53;8.90;99.90
27026;DHT22;14565;48.626;8.978;2022-09-27T03:42:19;9.00;99.90
27026;DHT22;14565;48.626;8.978;2022-09-27T03:44:45;9.00;99.90
27026;DHT22;14565;48.626;8.978;2022-09-27T03:47:10;9.00;99.90
27026;DHT22;14565;48.626;8.978;2022-09-27T03:49:36;9.10;99.90
27026;DHT22;14565;48.626;8.978;2022-09-27T03:52:02;9.00;99.90
27026;DHT22;14565;48.626;8.978;2022-09-27T03:54:28;9.00;99.90
27026;DHT22;14565;48.626;8.978;2022-09-27T03:56:53;9.00;99.90
27026;DHT22;14565;48.626;8.978;2022-09-27T03:59:19;9.10;99.90
27026;DHT22;14565;48.626;8.978;2022-09-27T04:01:44;9.30;99.90
27026;DHT22;14565;48.626;8.978;2022-09-27T04:04:10;9.50;99.90
27026;DHT22;14565;48.626;8.978;2022-09-27T04:06:36;9.40;99.90
27026;DHT22;14565;48.626;8.978;2022-09-27T04:09:02;9.40;99.90
27026;DHT22;14565;48.626;8.978;2022-09-27T04:11:28;9.20;99.90
27026;DHT22;14565;48.626;8.978;2022-09-27T04:13:54;9.20;99.90
27026;DHT22;14565;48.626;8.978;2022-09-27T04:16:20;9.20;99.90
27026;DHT22;14565;48.626;8.978;2022-09-27T04:18:46;9.10;99.90
27026;DHT22;14565;48.626;8.978;2022-09-27T04:21:12;9.30;99.90
27026;DHT22;14565;48.626;8.978;2022-09-27T04:23:38;9.30;99.90
27026;DHT22;14565;48.626;8.978;2022-09-27T04:26:04;9.10;99.90
27026;DHT22;14565;48.626;8.978;2022-09-27T04:28:29;9.20;99.90
27026;DHT22;14565;48.626;8.978;2022-09-27T04:30:56;9.10;99.90
27026;DHT22;14565;48.626;8.978;2022-09-27T04:33:22;9.10;99.90
27026;DHT22;14565;48.626;8.978;2022-09-27T04:35:48;9.10;99.90
27026;DHT22;14565;48.626;8.978;2022-09-27T04:38:33;9.20;99.90
27026;DHT22;14565;48.626;8.978;2022-09-27T04:40:58;9.20;99.90
27026;DHT22;14565;48.626;8.978;2022-09-27T04:43:27;9.20;99.90
27026;DHT22;14565;48.626;8.978;2022-09-27T04:45:53;9.10;99.90
27026;DHT22;14565;48.626;8.978;2022-09-27T04:48:19;9.20;99.90
27026;DHT22;14565;48.626;8.978;2022-09-27T04:50:45;9.20;99.90
27026;DHT22;14565;48.626;8.978;2022-09-27T04:53:14;9.20;99.90
27026;DHT22;14565;48.626;8.978;2022-09-27T04:55:44;9.10;99.90
27026;DHT22;14565;48.626;8.978;2022-09-27T04:58:10;9.10;99.90
27026;DHT22;14565;48.626;8.978;2022-09-27T05:00:36;9.00;99.90
27026;DHT22;14565;48.626;8.978;2022-09-27T05:03:02;9.10;99.90
27026;DHT22;14565;48.626;8.978;2022-09-27T05:05:27;9.20;99.90
27026;DHT22;14565;48.626;8.978;2022-09-27T05:07:53;9.10;99.90
27026;DHT22;14565;48.626;8.978;2022-09-27T05:10:19;9.10;99.90
27026;DHT22;14565;48.626;8.978;2022-09-27T05:12:44;8.80;99.90
27026;DHT22;14565;48.626;8.978;2022-09-27T05:15:10;8.80;99.90
27026;DHT22;14565;48.626;8.978;2022-09-27T05:17:36;8.70;99.90
27026;DHT22;14565;48.626;8.978;2022-09-27T05:20:02;8.70;99.90
27026;DHT22;14565;48.626;8.978;2022-09-27T05:22:28;8.60;99.90
27026;DHT22;14565;48.626;8.978;2022-09-27T05:24:54;8.60;99.90
27026;DHT22;14565;48.626;8.978;2022-09-27T05:27:20;8.60;99.90
27026;DHT22;14565;48.626;8.978;2022-09-27T05:29:46;8.50;99.90
27026;DHT22;14565;48.626;8.978;2022-09-27T05:32:12;8.60;99.90
27026;DHT22;14565;48.626;8.978;2022-09-27T05:34:38;8.50;99.90
27026;DHT22;14565;48.626;8.978;2022-09-27T05:37:04;8.50;99.90
27026;DHT22;14565;48.626;8.978;2022-09-27T05:39:30;8.40;99.90
27026;DHT22;14565;48.626;8.978;2022-09-27T05:41:56;8.40;99.90
27026;DHT22;14565;48.626;8.978;2022-09-27T05:44:22;8.40;99.90
27026;DHT22;14565;48.626;8.978;2022-09-27T05:46:48;8.40;99.90
27026;DHT22;14565;48.626;8.978;2022-09-27T05:49:13;8.40;99.90
27026;DHT22;14565;48.626;8.978;2022-09-27T05:51:39;8.40;99.90
27026;DHT22;14565;48.626;8.978;2022-09-27T05:54:05;8.40;99.90
27026;DHT22;14565;48.626;8.978;2022-09-27T05:56:31;8.40;99.90
27026;DHT22;14565;48.626;8.978;2022-09-27T05:58:57;8.50;99.90
27026;DHT22;14565;48.626;8.978;2022-09-27T06:01:23;8.60;99.90
27026;DHT22;14565;48.626;8.978;2022-09-27T06:03:51;8.60;99.90
27026;DHT22;14565;48.626;8.978;2022-09-27T06:06:17;8.70;99.90
27026;DHT22;14565;48.626;8.978;2022-09-27T06:08:43;8.70;99.90
27026;DHT22;14565;48.626;8.978;2022-09-27T06:11:10;8.70;99.90
27026;DHT22;14565;48.626;8.978;2022-09-27T06:13:39;8.80;99.90
27026;DHT22;14565;48.626;8.978;2022-09-27T06:16:07;8.80;99.90
27026;DHT22;14565;48.626;8.978;2022-09-27T06:18:34;8.90;99.90
27026;DHT22;14565;48.626;8.978;2022-09-27T06:21:01;9.00;99.90
27026;DHT22;14565;48.626;8.978;2022-09-27T06:23:29;9.10;99.90
27026;DHT22;14565;48.626;8.978;2022-09-27T06:26:04;9.10;99.90
27026;DHT22;14565;48.626;8.978;2022-09-27T06:28:31;9.10;99.90
27026;DHT22;14565;48.626;8.978;2022-09-27T06:30:59;9.00;99.90
27026;DHT22;14565;48.626;8.978;2022-09-27T06:33:26;8.90;99.90
27026;DHT22;14565;48.626;8.978;2022-09-27T06:35:52;8.90;99.90
27026;DHT22;14565;48.626;8.978;2022-09-27T06:38:18;8.80;99.90
27026;DHT22;14565;48.626;8.978;2022-09-27T06:40:46;8.90;99.90
27026;DHT22;14565;48.626;8.978;2022-09-27T06:43:14;9.10;99.90
27026;DHT22;14565;48.626;8.978;2022-09-27T06:45:40;9.00;99.90
27026;DHT22;14565;48.626;8.978;2022-09-27T06:48:08;9.10;99.90
27026;DHT22;14565;48.626;8.978;2022-09-27T06:50:36;8.90;99.90
27026;DHT22;14565;48.626;8.978;2022-09-27T06:53:03;9.10;99.90
27026;DHT22;14565;48.626;8.978;2022-09-27T06:55:29;9.20;99.90
27026;DHT22;14565;48.626;8.978;2022-09-27T06:57:56;9.50;99.90
27026;DHT22;14565;48.626;8.978;2022-09-27T07:00:40;9.50;99.90
27026;DHT22;14565;48.626;8.978;2022-09-27T07:03:09;9.60;99.90
27026;DHT22;14565;48.626;8.978;2022-09-27T07:05:36;9.50;99.90
27026;DHT22;14565;48.626;8.978;2022-09-27T07:08:03;9.60;99.90
27026;DHT22;14565;48.626;8.978;2022-09-27T07:10:32;9.70;99.90
27026;DHT22;14565;48.626;8.978;2022-09-27T07:13:09;9.60;99.90
27026;DHT22;14565;48.626;8.978;2022-09-27T07:15:36;9.50;99.90
27026;DHT22;14565;48.626;8.978;2022-09-27T07:18:03;9.60;99.90
27026;DHT22;14565;48.626;8.978;2022-09-27T07:20:29;9.90;99.90
27026;DHT22;14565;48.626;8.978;2022-09-27T07:22:55;9.80;99.90
27026;DHT22;14565;48.626;8.978;2022-09-27T07:25:22;9.90;99.90
27026;DHT22;14565;48.626;8.978;2022-09-27T07:27:48;10.00;99.90
27026;DHT22;14565;48.626;8.978;2022-09-27T07:30:14;9.80;99.90
27026;DHT22;14565;48.626;8.978;2022-09-27T07:32:41;9.80;99.90
27026;DHT22;14565;48.626;8.978;2022-09-27T07:35:08;10.20;99.90
27026;DHT22;14565;48.626;8.978;2022-09-27T07:37:35;10.10;99.90
27026;DHT22;14565;48.626;8.978;2022-09-27T07:40:03;10.10;99.90
27026;DHT22;14565;48.626;8.978;2022-09-27T07:42:31;10.20;99.90
27026;DHT22;14565;48.626;8.978;2022-09-27T07:44:57;10.10;99.90
27026;DHT22;14565;48.626;8.978;2022-09-27T07:47:23;10.40;99.90
27026;DHT22;14565;48.626;8.978;2022-09-27T07:49:50;10.40;99.90
27026;DHT22;14565;48.626;8.978;2022-09-27T07:52:20;10.30;99.90
27026;DHT22;14565;48.626;8.978;2022-09-27T07:54:46;10.10;99.90
27026;DHT22;14565;48.626;8.978;2022-09-27T07:57:13;10.40;99.90
27026;DHT22;14565;48.626;8.978;2022-09-27T07:59:39;10.70;99.90
27026;DHT22;14565;48.626;8.978;2022-09-27T08:02:07;10.80;99.90
27026;DHT22;14565;48.626;8.978;2022-09-27T08:04:35;11.00;99.90
27026;DHT22;14565;48.626;8.978;2022-09-27T08:07:01;10.90;99.90
27026;DHT22;14565;48.626;8.978;2022-09-27T08:09:26;11.00;99.90
27026;DHT22;14565;48.626;8.978;2022-09-27T08:11:55;10.90;99.90
27026;DHT22;14565;48.626;8.978;2022-09-27T08:14:22;11.20;99.90
27026;DHT22;14565;48.626;8.978;2022-09-27T08:16:48;11.10;99.90
27026;DHT22;14565;48.626;8.978;2022-09-27T08:19:16;11.20;99.90
27026;DHT22;14565;48.626;8.978;2022-09-27T08:21:42;11.10;99.90
27026;DHT22;14565;48.626;8.978;2022-09-27T08:24:08;11.60;99.90
27026;DHT22;14565;48.626;8.978;2022-09-27T08:26:34;11.80;99.90
27026;DHT22;14565;48.626;8.978;2022-09-27T08:28:59;11.90;99.90
27026;DHT22;14565;48.626;8.978;2022-09-27T08:31:25;11.50;99.90
27026;DHT22;14565;48.626;8.978;2022-09-27T08:33:51;11.20;99.90
27026;DHT22;14565;48.626;8.978;2022-09-27T08:36:18;10.60;99.90
27026;DHT22;14565;48.626;8.978;2022-09-27T08:38:50;10.30;99.90
27026;DHT22;14565;48.626;8.978;2022-09-27T08:47:38;9.80;99.90
27026;DHT22;14565;48.626;8.978;2022-09-27T08:50:35;9.90;99.90
27026;DHT22;14565;48.626;8.978;2022-09-27T08:55:44;10.10;99.90
27026;DHT22;14565;48.626;8.978;2022-09-27T08:58:31;10.20;99.90
27026;DHT22;14565;48.626;8.978;2022-09-27T09:01:03;10.40;99.90
27026;DHT22;14565;48.626;8.978;2022-09-27T09:03:34;10.50;99.90
27026;DHT22;14565;48.626;8.978;2022-09-27T09:19:59;10.10;99.90
27026;DHT22;14565;48.626;8.978;2022-09-27T09:22:37;10.40;99.90
27026;DHT22;14565;48.626;8.978;2022-09-27T09:33:32;12.10;99.90
27026;DHT22;14565;48.626;8.978;2022-09-27T09:36:09;11.70;99.90
27026;DHT22;14565;48.626;8.978;2022-09-27T09:38:55;11.50;99.90
27026;DHT22;14565;48.626;8.978;2022-09-27T09:41:28;11.60;99.90
27026;DHT22;14565;48.626;8.978;2022-09-27T09:46:52;12.50;99.90
27026;DHT22;14565;48.626;8.978;2022-09-27T09:49:34;12.80;99.90
27026;DHT22;14565;48.626;8.978;2022-09-27T09:52:11;12.30;99.90
27026;DHT22;14565;48.626;8.978;2022-09-27T09:57:14;11.90;99.90
27026;DHT22;14565;48.626;8.978;2022-09-27T09:59:54;11.80;99.90
27026;DHT22;14565;48.626;8.978;2022-09-27T10:02:39;11.90;99.90
27026;DHT22;14565;48.626;8.978;2022-09-27T10:05:12;12.20;99.90
27026;DHT22;14565;48.626;8.978;2022-09-27T10:07:38;11.80;99.90
27026;DHT22;14565;48.626;8.978;2022-09-27T10:10:06;11.80;99.90
27026;DHT22;14565;48.626;8.978;2022-09-27T10:12:32;12.10;99.90
27026;DHT22;14565;48.626;8.978;2022-09-27T10:15:00;12.10;99.90
27026;DHT22;14565;48.626;8.978;2022-09-27T10:17:48;12.30;99.90
27026;DHT22;14565;48.626;8.978;2022-09-27T10:20:42;12.10;99.90
27026;DHT22;14565;48.626;8.978;2022-09-27T10:25:55;12.20;99.90
27026;DHT22;14565;48.626;8.978;2022-09-27T10:28:34;11.90;99.90
27026;DHT22;14565;48.626;8.978;2022-09-27T10:31:16;12.20;99.90
27026;DHT22;14565;48.626;8.978;2022-09-27T10:34:02;12.40;99.90
27026;DHT22;14565;48.626;8.978;2022-09-27T10:36:31;13.00;99.90
27026;DHT22;14565;48.626;8.978;2022-09-27T10:38:59;13.00;99.90
27026;DHT22;14565;48.626;8.978;2022-09-27T10:41:39;12.90;99.90
27026;DHT22;14565;48.626;8.978;2022-09-27T10:46:47;13.00;99.90
27026;DHT22;14565;48.626;8.978;2022-09-27T10:49:30;13.40;99.90
27026;DHT22;14565;48.626;8.978;2022-09-27T10:52:14;13.30;99.90
27026;DHT22;14565;48.626;8.978;2022-09-27T10:54:41;12.90;99.90
27026;DHT22;14565;48.626;8.978;2022-09-27T10:57:20;13.10;99.90
27026;DHT22;14565;48.626;8.978;2022-09-27T11:00:50;13.30;99.90
27026;DHT22;14565;48.626;8.978;2022-09-27T11:02:51;13.40;99.90
27026;DHT22;14565;48.626;8.978;2022-09-27T11:07:54;13.60;99.90
27026;DHT22;14565;48.626;8.978;2022-09-27T11:15:30;12.90;99.90
27026;DHT22;14565;48.626;8.978;2022-09-27T11:18:14;12.70;99.90
27026;DHT22;14565;48.626;8.978;2022-09-27T11:20:52;12.50;99.90
27026;DHT22;14565;48.626;8.978;2022-09-27T11:28:44;11.80;99.90
27026;DHT22;14565;48.626;8.978;2022-09-27T12:01:42;11.50;99.90
27026;DHT22;14565;48.626;8.978;2022-09-27T12:06:53;11.30;99.90
27026;DHT22;14565;48.626;8.978;2022-09-27T12:09:27;10.90;99.90
27026;DHT22;14565;48.626;8.978;2022-09-27T12:12:11;10.70;99.90
27026;DHT22;14565;48.626;8.978;2022-09-27T12:14:42;10.70;99.90
27026;DHT22;14565;48.626;8.978;2022-09-27T12:17:22;10.70;99.90
27026;DHT22;14565;48.626;8.978;2022-09-27T12:19:54;10.80;99.90
27026;DHT22;14565;48.626;8.978;2022-09-27T12:22:25;10.90;99.90
27026;DHT22;14565;48.626;8.978;2022-09-27T12:24:52;10.90;99.90
27026;DHT22;14565;48.626;8.978;2022-09-27T12:27:34;10.90;99.90
27026;DHT22;14565;48.626;8.978;2022-09-27T12:30:03;11.20;99.90
27026;DHT22;14565;48.626;8.978;2022-09-27T12:32:34;11.00;99.90
27026;DHT22;14565;48.626;8.978;2022-09-27T12:35:16;10.90;99.90
27026;DHT22;14565;48.626;8.978;2022-09-27T12:37:56;10.90;99.90
27026;DHT22;14565;48.626;8.978;2022-09-27T12:40:24;11.00;99.90
27026;DHT22;14565;48.626;8.978;2022-09-27T12:45:33;10.70;99.90
27026;DHT22;14565;48.626;8.978;2022-09-27T12:51:01;10.90;99.90
27026;DHT22;14565;48.626;8.978;2022-09-27T13:08:04;10.60;99.90
27026;DHT22;14565;48.626;8.978;2022-09-27T13:12:59;11.00;99.90
27026;DHT22;14565;48.626;8.978;2022-09-27T13:15:32;11.10;99.90
27026;DHT22;14565;48.626;8.978;2022-09-27T13:17:59;11.00;99.90
27026;DHT22;14565;48.626;8.978;2022-09-27T13:23:47;11.00;99.90
27026;DHT22;14565;48.626;8.978;2022-09-27T13:30:53;11.00;99.90
27026;DHT22;14565;48.626;8.978;2022-09-27T13:36:15;11.40;99.90
27026;DHT22;14565;48.626;8.978;2022-09-27T13:46:52;11.40;99.90
27026;DHT22;14565;48.626;8.978;2022-09-27T13:49:36;11.40;99.90
27026;DHT22;14565;48.626;8.978;2022-09-27T14:00:04;11.90;99.90
27026;DHT22;14565;48.626;8.978;2022-09-27T14:02:38;12.10;99.90
27026;DHT22;14565;48.626;8.978;2022-09-27T14:05:10;12.00;99.90
27026;DHT22;14565;48.626;8.978;2022-09-27T14:07:43;11.90;99.90
27026;DHT22;14565;48.626;8.978;2022-09-27T14:10:14;11.80;99.90
27026;DHT22;14565;48.626;8.978;2022-09-27T14:12:41;11.80;99.90
27026;DHT22;14565;48.626;8.978;2022-09-27T14:15:28;11.80;99.90
27026;DHT22;14565;48.626;8.978;2022-09-27T14:17:55;11.70;99.90
27026;DHT22;14565;48.626;8.978;2022-09-27T14:20:33;12.00;99.90
27026;DHT22;14565;48.626;8.978;2022-09-27T14:23:00;12.40;99.90
27026;DHT22;14565;48.626;8.978;2022-09-27T14:25:27;12.50;99.90
27026;DHT22;14565;48.626;8.978;2022-09-27T14:27:52;12.20;99.90
27026;DHT22;14565;48.626;8.978;2022-09-27T14:30:21;12.40;99.90
27026;DHT22;14565;48.626;8.978;2022-09-27T14:32:52;12.50;99.90
27026;DHT22;14565;48.626;8.978;2022-09-27T14:35:22;12.20;99.90
27026;DHT22;14565;48.626;8.978;2022-09-27T14:38:10;12.00;99.90
27026;DHT22;14565;48.626;8.978;2022-09-27T14:40:42;11.80;99.90
27026;DHT22;14565;48.626;8.978;2022-09-27T14:43:16;11.70;99.90
27026;DHT22;14565;48.626;8.978;2022-09-27T14:45:43;11.40;99.90
27026;DHT22;14565;48.626;8.978;2022-09-27T14:48:20;11.40;99.90
27026;DHT22;14565;48.626;8.978;2022-09-27T14:51:19;11.50;99.90
27026;DHT22;14565;48.626;8.978;2022-09-27T14:53:49;11.30;99.90
27026;DHT22;14565;48.626;8.978;2022-09-27T14:56:20;11.20;99.90
27026;DHT22;14565;48.626;8.978;2022-09-27T14:58:54;11.10;99.90
27026;DHT22;14565;48.626;8.978;2022-09-27T15:01:27;11.20;99.90
27026;DHT22;14565;48.626;8.978;2022-09-27T15:03:53;11.20;99.90
27026;DHT22;14565;48.626;8.978;2022-09-27T15:06:20;11.30;99.90
27026;DHT22;14565;48.626;8.978;2022-09-27T15:08:47;11.20;99.90
27026;DHT22;14565;48.626;8.978;2022-09-27T15:11:16;11.10;99.90
27026;DHT22;14565;48.626;8.978;2022-09-27T15:13:42;11.20;99.90
27026;DHT22;14565;48.626;8.978;2022-09-27T15:16:16;11.30;99.90
27026;DHT22;14565;48.626;8.978;2022-09-27T15:18:46;11.40;99.90
27026;DHT22;14565;48.626;8.978;2022-09-27T15:21:15;11.40;99.90
27026;DHT22;14565;48.626;8.978;2022-09-27T15:23:52;11.30;99.90
27026;DHT22;14565;48.626;8.978;2022-09-27T15:26:26;11.20;99.90
27026;DHT22;14565;48.626;8.978;2022-09-27T15:28:58;11.10;99.90
27026;DHT22;14565;48.626;8.978;2022-09-27T15:31:32;11.10;99.90
27026;DHT22;14565;48.626;8.978;2022-09-27T15:33:59;11.10;99.90
27026;DHT22;14565;48.626;8.978;2022-09-27T15:39:20;11.20;99.90
27026;DHT22;14565;48.626;8.978;2022-09-27T15:42:20;11.20;99.90
27026;DHT22;14565;48.626;8.978;2022-09-27T15:52:49;10.90;99.90
27026;DHT22;14565;48.626;8.978;2022-09-27T15:55:17;11.10;99.90
27026;DHT22;14565;48.626;8.978;2022-09-27T15:57:44;11.20;99.90
27026;DHT22;14565;48.626;8.978;2022-09-27T16:00:17;11.30;99.90
27026;DHT22;14565;48.626;8.978;2022-09-27T16:02:43;11.40;99.90
27026;DHT22;14565;48.626;8.978;2022-09-27T16:05:10;11.10;99.90
27026;DHT22;14565;48.626;8.978;2022-09-27T16:07:35;11.10;99.90
27026;DHT22;14565;48.626;8.978;2022-09-27T16:10:04;10.90;99.90
27026;DHT22;14565;48.626;8.978;2022-09-27T16:12:34;10.80;99.90
27026;DHT22;14565;48.626;8.978;2022-09-27T16:15:00;10.60;99.90
27026;DHT22;14565;48.626;8.978;2022-09-27T16:17:25;10.50;99.90
27026;DHT22;14565;48.626;8.978;2022-09-27T16:19:51;10.30;99.90
27026;DHT22;14565;48.626;8.978;2022-09-27T16:22:16;10.40;99.90
27026;DHT22;14565;48.626;8.978;2022-09-27T16:24:42;10.30;99.90
27026;DHT22;14565;48.626;8.978;2022-09-27T16:27:08;10.10;99.90
27026;DHT22;14565;48.626;8.978;2022-09-27T16:29:34;10.00;99.90
27026;DHT22;14565;48.626;8.978;2022-09-27T16:31:59;9.90;99.90
27026;DHT22;14565;48.626;8.978;2022-09-27T16:34:26;9.90;99.90
27026;DHT22;14565;48.626;8.978;2022-09-27T16:36:52;9.90;99.90
27026;DHT22;14565;48.626;8.978;2022-09-27T16:39:18;9.90;99.90
27026;DHT22;14565;48.626;8.978;2022-09-27T16:41:44;9.70;99.90
27026;DHT22;14565;48.626;8.978;2022-09-27T16:44:13;9.60;99.90
27026;DHT22;14565;48.626;8.978;2022-09-27T16:46:42;9.70;99.90
27026;DHT22;14565;48.626;8.978;2022-09-27T16:49:10;9.70;99.90
27026;DHT22;14565;48.626;8.978;2022-09-27T16:51:57;9.60;99.90
27026;DHT22;14565;48.626;8.978;2022-09-27T16:54:27;9.70;99.90
27026;DHT22;14565;48.626;8.978;2022-09-27T16:56:54;9.60;99.90
27026;DHT22;14565;48.626;8.978;2022-09-27T16:59:20;9.50;99.90
27026;DHT22;14565;48.626;8.978;2022-09-27T17:01:46;9.40;99.90
27026;DHT22;14565;48.626;8.978;2022-09-27T17:04:12;9.40;99.90
27026;DHT22;14565;48.626;8.978;2022-09-27T17:06:40;9.50;99.90
27026;DHT22;14565;48.626;8.978;2022-09-27T17:09:06;9.50;99.90
27026;DHT22;14565;48.626;8.978;2022-09-27T17:11:32;9.60;99.90
27026;DHT22;14565;48.626;8.978;2022-09-27T17:13:58;9.50;99.90
27026;DHT22;14565;48.626;8.978;2022-09-27T17:16:24;9.40;99.90
27026;DHT22;14565;48.626;8.978;2022-09-27T17:18:50;9.40;99.90
27026;DHT22;14565;48.626;8.978;2022-09-27T17:21:17;9.30;99.90
27026;DHT22;14565;48.626;8.978;2022-09-27T17:23:42;9.20;99.90
27026;DHT22;14565;48.626;8.978;2022-09-27T17:26:19;9.20;99.90
27026;DHT22;14565;48.626;8.978;2022-09-27T17:28:46;9.20;99.90
27026;DHT22;14565;48.626;8.978;2022-09-27T17:31:13;9.20;99.90
27026;DHT22;14565;48.626;8.978;2022-09-27T17:33:48;9.10;99.90
27026;DHT22;14565;48.626;8.978;2022-09-27T17:36:20;9.10;99.90
27026;DHT22;14565;48.626;8.978;2022-09-27T17:38:47;9.00;99.90
27026;DHT22;14565;48.626;8.978;2022-09-27T17:41:16;9.00;99.90
27026;DHT22;14565;48.626;8.978;2022-09-27T17:43:43;8.90;99.90
27026;DHT22;14565;48.626;8.978;2022-09-27T17:46:15;8.90;99.90
27026;DHT22;14565;48.626;8.978;2022-09-27T17:48:41;8.90;99.90
27026;DHT22;14565;48.626;8.978;2022-09-27T17:51:26;8.90;99.90
27026;DHT22;14565;48.626;8.978;2022-09-27T17:53:52;8.70;99.90
27026;DHT22;14565;48.626;8.978;2022-09-27T17:56:18;8.80;99.90
27026;DHT22;14565;48.626;8.978;2022-09-27T17:58:53;8.80;99.90
27026;DHT22;14565;48.626;8.978;2022-09-27T18:01:21;8.70;99.90
27026;DHT22;14565;48.626;8.978;2022-09-27T18:03:52;8.70;99.90
27026;DHT22;14565;48.626;8.978;2022-09-27T18:06:19;8.70;99.90
27026;DHT22;14565;48.626;8.978;2022-09-27T18:08:45;8.70;99.90
27026;DHT22;14565;48.626;8.978;2022-09-27T18:11:13;8.70;99.90
27026;DHT22;14565;48.626;8.978;2022-09-27T18:13:39;8.70;99.90
27026;DHT22;14565;48.626;8.978;2022-09-27T18:16:17;8.60;99.90
27026;DHT22;14565;48.626;8.978;2022-09-27T18:18:44;8.60;99.90
27026;DHT22;14565;48.626;8.978;2022-09-27T18:21:17;8.50;99.90
27026;DHT22;14565;48.626;8.978;2022-09-27T18:23:50;8.40;99.90
27026;DHT22;14565;48.626;8.978;2022-09-27T18:26:17;8.50;99.90
27026;DHT22;14565;48.626;8.978;2022-09-27T18:28:43;8.30;99.90
27026;DHT22;14565;48.626;8.978;2022-09-27T18:31:12;8.30;99.90
27026;DHT22;14565;48.626;8.978;2022-09-27T18:33:38;8.30;99.90
27026;DHT22;14565;48.626;8.978;2022-09-27T18:36:15;8.10;99.90
27026;DHT22;14565;48.626;8.978;2022-09-27T18:38:43;8.20;99.90
27026;DHT22;14565;48.626;8.978;2022-09-27T18:41:11;8.30;99.90
27026;DHT22;14565;48.626;8.978;2022-09-27T18:43:38;8.20;99.90
27026;DHT22;14565;48.626;8.978;2022-09-27T18:46:08;8.20;99.90
27026;DHT22;14565;48.626;8.978;2022-09-27T18:48:36;8.20;99.90
27026;DHT22;14565;48.626;8.978;2022-09-27T18:51:17;8.20;99.90
27026;DHT22;14565;48.626;8.978;2022-09-27T18:53:43;8.00;99.90
27026;DHT22;14565;48.626;8.978;2022-09-27T18:56:12;7.90;99.90
27026;DHT22;14565;48.626;8.978;2022-09-27T18:58:38;7.80;99.90
27026;DHT22;14565;48.626;8.978;2022-09-27T19:01:06;7.80;99.90
27026;DHT22;14565;48.626;8.978;2022-09-27T19:03:33;7.70;99.90
27026;DHT22;14565;48.626;8.978;2022-09-27T19:06:02;7.60;99.90
27026;DHT22;14565;48.626;8.978;2022-09-27T19:08:27;7.60;99.90
27026;DHT22;14565;48.626;8.978;2022-09-27T19:10:53;7.60;99.90
27026;DHT22;14565;48.626;8.978;2022-09-27T19:13:19;7.60;99.90
27026;DHT22;14565;48.626;8.978;2022-09-27T19:15:55;7.50;99.90
27026;DHT22;14565;48.626;8.978;2022-09-27T19:18:22;7.40;99.90
27026;DHT22;14565;48.626;8.978;2022-09-27T19:20:48;7.30;99.90